Harrold, South Dakota
Current Conditions -  °F | °C
As of 7:53 PM on Thursday 18 Dec 2014 (Local Time) from KPIR Reporting Station
Overcast Overcast  
Wind Chill: 20°   Ceiling: 7500
Heat Index: 27°   Visibility: 9mi
Dew Point: 24°   Wind: 6mph
Humidity: 89%   Direction: 190°S
Pressure: 30.07"   Gusts: NA
Location:  44.52°N, 99.74°W
Report Text: KPIR 190153Z AUTO 19005KT 9SM SCT014 OVC075 M03/M04 A3007 RMK AO2 SLP207 T10281044
Loading
Personal Weather Stations






























Interactive Weather Map New forecast layout! Learn more

10-Day Weather Forecast

Advertisements
Track Severe Weather on mobile